sensor_id;sensor_type;location;lat;lon;timestamp;pressure;altitude;pressure_sealevel;temperature;humidity
15604;BME280;7902;49.042;9.092;2024-01-27T00:00:20;100848.16;;;8.24;62.61
15604;BME280;7902;49.042;9.092;2024-01-27T00:02:46;100845.84;;;8.15;62.38
15604;BME280;7902;49.042;9.092;2024-01-27T00:05:12;100847.50;;;8.17;62.41
15604;BME280;7902;49.042;9.092;2024-01-27T00:07:38;100850.25;;;8.14;62.77
15604;BME280;7902;49.042;9.092;2024-01-27T00:10:04;100847.56;;;8.16;62.58
15604;BME280;7902;49.042;9.092;2024-01-27T00:12:30;100851.06;;;8.15;62.87
15604;BME280;7902;49.042;9.092;2024-01-27T00:14:56;100853.94;;;8.09;63.30
15604;BME280;7902;49.042;9.092;2024-01-27T00:17:22;100850.44;;;8.08;62.90
15604;BME280;7902;49.042;9.092;2024-01-27T00:19:51;100850.59;;;8.04;63.21
15604;BME280;7902;49.042;9.092;2024-01-27T00:22:17;100851.81;;;7.93;63.75
15604;BME280;7902;49.042;9.092;2024-01-27T00:24:43;100862.16;;;7.97;63.62
15604;BME280;7902;49.042;9.092;2024-01-27T00:27:09;100863.22;;;7.91;63.39
15604;BME280;7902;49.042;9.092;2024-01-27T00:29:35;100858.97;;;7.88;63.33
15604;BME280;7902;49.042;9.092;2024-01-27T00:32:01;100863.44;;;7.85;63.48
15604;BME280;7902;49.042;9.092;2024-01-27T00:34:27;100864.34;;;7.84;63.69
15604;BME280;7902;49.042;9.092;2024-01-27T00:36:53;100864.34;;;7.84;63.27
15604;BME280;7902;49.042;9.092;2024-01-27T00:39:19;100870.28;;;7.89;63.26
15604;BME280;7902;49.042;9.092;2024-01-27T00:41:45;100870.31;;;7.87;62.67
15604;BME280;7902;49.042;9.092;2024-01-27T00:44:11;100865.31;;;7.81;63.21
15604;BME280;7902;49.042;9.092;2024-01-27T00:46:37;100866.69;;;7.91;63.05
15604;BME280;7902;49.042;9.092;2024-01-27T00:49:03;100867.47;;;7.95;62.74
15604;BME280;7902;49.042;9.092;2024-01-27T00:51:29;100864.31;;;7.85;63.52
15604;BME280;7902;49.042;9.092;2024-01-27T00:53:55;100874.97;;;7.79;63.48
15604;BME280;7902;49.042;9.092;2024-01-27T00:56:21;100876.72;;;7.79;63.19
15604;BME280;7902;49.042;9.092;2024-01-27T00:58:47;100875.16;;;7.73;63.25
15604;BME280;7902;49.042;9.092;2024-01-27T01:01:13;100876.34;;;7.63;63.08
15604;BME280;7902;49.042;9.092;2024-01-27T01:03:39;100872.06;;;7.62;63.33
15604;BME280;7902;49.042;9.092;2024-01-27T01:06:04;100868.50;;;7.63;62.98
15604;BME280;7902;49.042;9.092;2024-01-27T01:08:31;100863.66;;;7.53;63.38
15604;BME280;7902;49.042;9.092;2024-01-27T01:10:57;100873.00;;;7.60;63.17
15604;BME280;7902;49.042;9.092;2024-01-27T01:13:23;100874.91;;;7.55;63.23
15604;BME280;7902;49.042;9.092;2024-01-27T01:15:49;100879.41;;;7.49;63.94
15604;BME280;7902;49.042;9.092;2024-01-27T01:18:15;100883.00;;;7.47;64.14
15604;BME280;7902;49.042;9.092;2024-01-27T01:20:41;100890.88;;;7.45;64.00
15604;BME280;7902;49.042;9.092;2024-01-27T01:23:07;100893.63;;;7.41;63.51
15604;BME280;7902;49.042;9.092;2024-01-27T01:25:33;100887.75;;;7.34;63.70
15604;BME280;7902;49.042;9.092;2024-01-27T01:27:59;100893.72;;;7.38;63.73
15604;BME280;7902;49.042;9.092;2024-01-27T01:30:25;100888.66;;;7.33;63.62
15604;BME280;7902;49.042;9.092;2024-01-27T01:32:51;100888.78;;;7.29;63.70
15604;BME280;7902;49.042;9.092;2024-01-27T01:35:17;100890.41;;;7.33;63.96
15604;BME280;7902;49.042;9.092;2024-01-27T01:37:43;100891.44;;;7.27;63.85
15604;BME280;7902;49.042;9.092;2024-01-27T01:40:09;100891.44;;;7.27;63.82
15604;BME280;7902;49.042;9.092;2024-01-27T01:42:35;100898.56;;;7.22;64.53
15604;BME280;7902;49.042;9.092;2024-01-27T01:45:01;100909.13;;;7.19;64.90
15604;BME280;7902;49.042;9.092;2024-01-27T01:47:27;100909.06;;;7.21;64.11
15604;BME280;7902;49.042;9.092;2024-01-27T01:49:53;100909.13;;;7.19;64.51
15604;BME280;7902;49.042;9.092;2024-01-27T01:52:21;100912.78;;;7.12;64.15
15604;BME280;7902;49.042;9.092;2024-01-27T01:54:50;100920.69;;;7.11;64.39
15604;BME280;7902;49.042;9.092;2024-01-27T01:57:17;100924.25;;;7.08;64.44
15604;BME280;7902;49.042;9.092;2024-01-27T01:59:43;100932.91;;;7.10;64.27
15604;BME280;7902;49.042;9.092;2024-01-27T02:02:09;100921.53;;;7.11;64.58
15604;BME280;7902;49.042;9.092;2024-01-27T02:04:44;100919.38;;;7.25;63.83
15604;BME280;7902;49.042;9.092;2024-01-27T02:07:14;100917.94;;;7.15;63.80
15604;BME280;7902;49.042;9.092;2024-01-27T02:09:40;100938.91;;;7.12;64.41
15604;BME280;7902;49.042;9.092;2024-01-27T02:12:06;100926.84;;;7.08;64.11
15604;BME280;7902;49.042;9.092;2024-01-27T02:14:32;100940.09;;;7.02;64.37
15604;BME280;7902;49.042;9.092;2024-01-27T02:16:58;100940.31;;;6.94;64.65
15604;BME280;7902;49.042;9.092;2024-01-27T02:19:24;100944.72;;;6.92;64.95
15604;BME280;7902;49.042;9.092;2024-01-27T02:21:50;100947.19;;;6.97;64.57
15604;BME280;7902;49.042;9.092;2024-01-27T02:24:16;100954.31;;;6.92;64.82
15604;BME280;7902;49.042;9.092;2024-01-27T02:26:42;100950.53;;;7.02;64.44
15604;BME280;7902;49.042;9.092;2024-01-27T02:29:08;100958.91;;;7.15;63.63
15604;BME280;7902;49.042;9.092;2024-01-27T02:31:34;100966.66;;;7.16;64.23
15604;BME280;7902;49.042;9.092;2024-01-27T02:34:00;100967.34;;;7.23;64.20
15604;BME280;7902;49.042;9.092;2024-01-27T02:36:25;100959.09;;;7.36;63.95
15604;BME280;7902;49.042;9.092;2024-01-27T02:38:51;100952.03;;;7.40;63.89
15604;BME280;7902;49.042;9.092;2024-01-27T02:41:17;100957.50;;;7.32;63.54
15604;BME280;7902;49.042;9.092;2024-01-27T02:43:43;100959.28;;;7.30;63.15
15604;BME280;7902;49.042;9.092;2024-01-27T02:46:12;100967.56;;;7.44;63.44
15604;BME280;7902;49.042;9.092;2024-01-27T02:48:42;100960.22;;;7.57;63.06
15604;BME280;7902;49.042;9.092;2024-01-27T02:51:08;100959.56;;;7.50;62.69
15604;BME280;7902;49.042;9.092;2024-01-27T02:53:34;100959.66;;;7.47;62.51
15604;BME280;7902;49.042;9.092;2024-01-27T02:56:00;100960.84;;;7.65;62.77
15604;BME280;7902;49.042;9.092;2024-01-27T02:58:26;100953.44;;;7.52;62.54
15604;BME280;7902;49.042;9.092;2024-01-27T03:00:52;100948.47;;;7.42;63.07
15604;BME280;7902;49.042;9.092;2024-01-27T03:03:18;100947.75;;;7.37;62.80
15604;BME280;7902;49.042;9.092;2024-01-27T03:05:44;100952.59;;;7.49;62.88
15604;BME280;7902;49.042;9.092;2024-01-27T03:08:10;100950.72;;;7.55;62.73
15604;BME280;7902;49.042;9.092;2024-01-27T03:10:36;100951.88;;;7.44;62.75
15604;BME280;7902;49.042;9.092;2024-01-27T03:13:02;100953.59;;;7.45;62.56
15604;BME280;7902;49.042;9.092;2024-01-27T03:15:28;100958.06;;;7.42;62.66
15604;BME280;7902;49.042;9.092;2024-01-27T03:17:54;100950.53;;;7.31;62.87
15604;BME280;7902;49.042;9.092;2024-01-27T03:20:20;100960.06;;;7.34;62.71
15604;BME280;7902;49.042;9.092;2024-01-27T03:22:46;100965.47;;;7.28;63.16
15604;BME280;7902;49.042;9.092;2024-01-27T03:25:12;100967.22;;;7.27;63.05
15604;BME280;7902;49.042;9.092;2024-01-27T03:27:38;100966.78;;;7.12;63.53
15604;BME280;7902;49.042;9.092;2024-01-27T03:30:04;100964.16;;;7.13;63.91
15604;BME280;7902;49.042;9.092;2024-01-27T03:32:31;100967.59;;;7.15;63.47
15604;BME280;7902;49.042;9.092;2024-01-27T03:35:00;100973.13;;;7.04;63.45
15604;BME280;7902;49.042;9.092;2024-01-27T03:37:26;100984.47;;;7.02;63.76
15604;BME280;7902;49.042;9.092;2024-01-27T03:39:53;100979.44;;;6.96;64.20
15604;BME280;7902;49.042;9.092;2024-01-27T03:42:19;100974.97;;;7.01;63.90
15604;BME280;7902;49.042;9.092;2024-01-27T03:44:44;100979.44;;;6.96;63.86
15604;BME280;7902;49.042;9.092;2024-01-27T03:47:10;100977.72;;;6.96;63.88
15604;BME280;7902;49.042;9.092;2024-01-27T03:49:36;100978.59;;;6.95;63.29
15604;BME280;7902;49.042;9.092;2024-01-27T03:52:03;100982.97;;;6.95;63.40
15604;BME280;7902;49.042;9.092;2024-01-27T03:54:29;100981.34;;;6.91;63.74
15604;BME280;7902;49.042;9.092;2024-01-27T03:56:55;100990.06;;;6.90;63.73
15604;BME280;7902;49.042;9.092;2024-01-27T03:59:21;100989.44;;;6.82;64.08
15604;BME280;7902;49.042;9.092;2024-01-27T04:01:47;100991.44;;;6.72;63.86
15604;BME280;7902;49.042;9.092;2024-01-27T04:04:13;100991.22;;;6.80;64.18
15604;BME280;7902;49.042;9.092;2024-01-27T04:06:40;100993.09;;;6.75;64.02
15604;BME280;7902;49.042;9.092;2024-01-27T04:09:06;100993.66;;;6.86;63.65
15604;BME280;7902;49.042;9.092;2024-01-27T04:11:35;101001.78;;;6.75;64.22
15604;BME280;7902;49.042;9.092;2024-01-27T04:14:03;101001.25;;;6.63;64.34
15604;BME280;7902;49.042;9.092;2024-01-27T04:16:29;100996.19;;;6.56;64.36
15604;BME280;7902;49.042;9.092;2024-01-27T04:18:55;101008.06;;;6.34;63.87
15604;BME280;7902;49.042;9.092;2024-01-27T04:21:21;101009.44;;;6.49;64.43
15604;BME280;7902;49.042;9.092;2024-01-27T04:23:47;101006.13;;;6.41;63.88
15604;BME280;7902;49.042;9.092;2024-01-27T04:26:13;101013.94;;;6.42;64.58
15604;BME280;7902;49.042;9.092;2024-01-27T04:28:39;101025.56;;;6.31;64.69
15604;BME280;7902;49.042;9.092;2024-01-27T04:31:05;101018.50;;;6.34;64.24
15604;BME280;7902;49.042;9.092;2024-01-27T04:33:31;101024.84;;;6.24;64.60
15604;BME280;7902;49.042;9.092;2024-01-27T04:35:57;101021.34;;;6.25;64.89
15604;BME280;7902;49.042;9.092;2024-01-27T04:38:23;101017.84;;;6.26;64.64
15604;BME280;7902;49.042;9.092;2024-01-27T04:40:50;101028.56;;;6.14;65.04
15604;BME280;7902;49.042;9.092;2024-01-27T04:43:17;101029.41;;;6.14;64.65
15604;BME280;7902;49.042;9.092;2024-01-27T04:45:44;101037.25;;;6.13;65.01
15604;BME280;7902;49.042;9.092;2024-01-27T04:48:10;101034.88;;;6.04;65.13
15604;BME280;7902;49.042;9.092;2024-01-27T04:50:36;101037.59;;;5.99;65.19
15604;BME280;7902;49.042;9.092;2024-01-27T04:53:02;101033.88;;;6.09;65.45
15604;BME280;7902;49.042;9.092;2024-01-27T04:55:27;101037.25;;;6.13;64.52
15604;BME280;7902;49.042;9.092;2024-01-27T04:57:53;101027.94;;;6.03;64.79
15604;BME280;7902;49.042;9.092;2024-01-27T05:00:19;101037.81;;;5.89;65.41
15604;BME280;7902;49.042;9.092;2024-01-27T05:02:45;101041.94;;;5.99;64.75
15604;BME280;7902;49.042;9.092;2024-01-27T05:05:12;101046.34;;;5.97;64.91
15604;BME280;7902;49.042;9.092;2024-01-27T05:07:38;101049.19;;;5.85;65.44
15604;BME280;7902;49.042;9.092;2024-01-27T05:10:05;101048.19;;;5.92;65.75
15604;BME280;7902;49.042;9.092;2024-01-27T05:12:31;101051.78;;;5.85;65.05
15604;BME280;7902;49.042;9.092;2024-01-27T05:14:57;101047.31;;;5.93;64.60
15604;BME280;7902;49.042;9.092;2024-01-27T05:17:23;101043.75;;;5.97;65.05
15604;BME280;7902;49.042;9.092;2024-01-27T05:19:52;101043.56;;;6.03;64.54
15604;BME280;7902;49.042;9.092;2024-01-27T05:22:17;101053.06;;;6.07;64.98
15604;BME280;7902;49.042;9.092;2024-01-27T05:24:43;101042.22;;;5.88;64.94
15604;BME280;7902;49.042;9.092;2024-01-27T05:27:09;101046.75;;;5.77;65.46
15604;BME280;7902;49.042;9.092;2024-01-27T05:29:37;101051.88;;;5.82;65.13
15604;BME280;7902;49.042;9.092;2024-01-27T05:32:03;101041.66;;;5.72;65.79
15604;BME280;7902;49.042;9.092;2024-01-27T05:34:29;101041.56;;;5.75;65.09
15604;BME280;7902;49.042;9.092;2024-01-27T05:36:55;101042.63;;;5.67;65.39
15604;BME280;7902;49.042;9.092;2024-01-27T05:39:21;101048.03;;;5.58;64.97
15604;BME280;7902;49.042;9.092;2024-01-27T05:41:47;101048.16;;;5.52;65.60
15604;BME280;7902;49.042;9.092;2024-01-27T05:44:13;101049.91;;;5.51;65.34
15604;BME280;7902;49.042;9.092;2024-01-27T05:46:38;101048.22;;;5.49;65.23
15604;BME280;7902;49.042;9.092;2024-01-27T05:49:04;101045.81;;;5.40;65.93
15604;BME280;7902;49.042;9.092;2024-01-27T05:51:30;101036.28;;;5.37;65.74
15604;BME280;7902;49.042;9.092;2024-01-27T05:53:56;101038.91;;;5.37;66.11
15604;BME280;7902;49.042;9.092;2024-01-27T05:56:22;101049.31;;;5.37;65.49
15604;BME280;7902;49.042;9.092;2024-01-27T05:58:48;101034.50;;;5.41;65.42
15604;BME280;7902;49.042;9.092;2024-01-27T06:01:14;101038.06;;;5.37;66.08
15604;BME280;7902;49.042;9.092;2024-01-27T06:03:41;101045.06;;;5.35;65.69
15604;BME280;7902;49.042;9.092;2024-01-27T06:06:08;101035.53;;;5.32;65.35
15604;BME280;7902;49.042;9.092;2024-01-27T06:08:34;101040.72;;;5.34;65.92
15604;BME280;7902;49.042;9.092;2024-01-27T06:11:00;101044.25;;;5.31;65.30
15604;BME280;7902;49.042;9.092;2024-01-27T06:13:26;101045.13;;;5.32;65.37
15604;BME280;7902;49.042;9.092;2024-01-27T06:15:52;101049.38;;;5.36;65.36
15604;BME280;7902;49.042;9.092;2024-01-27T06:18:17;101039.91;;;5.32;65.17
15604;BME280;7902;49.042;9.092;2024-01-27T06:20:44;101051.13;;;5.34;65.63
15604;BME280;7902;49.042;9.092;2024-01-27T06:23:10;101059.63;;;5.43;65.61
15604;BME280;7902;49.042;9.092;2024-01-27T06:25:36;101061.47;;;5.38;65.42
15604;BME280;7902;49.042;9.092;2024-01-27T06:28:02;101054.59;;;5.34;65.04
15604;BME280;7902;49.042;9.092;2024-01-27T06:30:27;101060.78;;;5.28;65.76
15604;BME280;7902;49.042;9.092;2024-01-27T06:32:53;101061.66;;;5.29;65.30
15604;BME280;7902;49.042;9.092;2024-01-27T06:35:19;101066.06;;;5.25;65.41
15604;BME280;7902;49.042;9.092;2024-01-27T06:37:45;101071.34;;;5.22;65.45
15604;BME280;7902;49.042;9.092;2024-01-27T06:40:12;101073.88;;;5.27;65.72
15604;BME280;7902;49.042;9.092;2024-01-27T06:42:38;101064.34;;;5.26;65.53
15604;BME280;7902;49.042;9.092;2024-01-27T06:45:04;101070.41;;;5.25;65.35
15604;BME280;7902;49.042;9.092;2024-01-27T06:47:30;101062.50;;;5.29;65.64
15604;BME280;7902;49.042;9.092;2024-01-27T06:49:56;101062.72;;;5.19;65.96
15604;BME280;7902;49.042;9.092;2024-01-27T06:52:22;101071.38;;;5.19;65.42
15604;BME280;7902;49.042;9.092;2024-01-27T06:54:48;101073.22;;;5.14;66.05
15604;BME280;7902;49.042;9.092;2024-01-27T06:57:23;101075.78;;;5.17;65.06
15604;BME280;7902;49.042;9.092;2024-01-27T06:59:51;101074.78;;;5.23;65.55
15604;BME280;7902;49.042;9.092;2024-01-27T07:02:25;101076.69;;;5.15;65.76
15604;BME280;7902;49.042;9.092;2024-01-27T07:04:52;101086.31;;;5.11;65.63
15604;BME280;7902;49.042;9.092;2024-01-27T07:07:22;101090.75;;;5.06;66.01
15604;BME280;7902;49.042;9.092;2024-01-27T07:09:49;101088.06;;;5.11;66.10
15604;BME280;7902;49.042;9.092;2024-01-27T07:12:15;101091.50;;;5.13;65.45
15604;BME280;7902;49.042;9.092;2024-01-27T07:14:41;101087.13;;;5.13;66.02
15604;BME280;7902;49.042;9.092;2024-01-27T07:17:07;101088.84;;;5.14;65.66
15604;BME280;7902;49.042;9.092;2024-01-27T07:19:33;101081.16;;;5.08;65.77
15604;BME280;7902;49.042;9.092;2024-01-27T07:21:59;101084.66;;;5.07;65.67
15604;BME280;7902;49.042;9.092;2024-01-27T07:24:29;101090.81;;;5.03;66.18
15604;BME280;7902;49.042;9.092;2024-01-27T07:26:55;101089.03;;;5.05;65.67
15604;BME280;7902;49.042;9.092;2024-01-27T07:29:21;101093.28;;;5.09;65.60
15604;BME280;7902;49.042;9.092;2024-01-27T07:31:47;101096.81;;;5.07;65.83
15604;BME280;7902;49.042;9.092;2024-01-27T07:34:13;101101.69;;;5.25;65.62
15604;BME280;7902;49.042;9.092;2024-01-27T07:36:39;101101.75;;;5.20;65.95
15604;BME280;7902;49.042;9.092;2024-01-27T07:39:05;101105.34;;;5.13;65.71
15604;BME280;7902;49.042;9.092;2024-01-27T07:41:31;101107.84;;;5.21;65.58
15604;BME280;7902;49.042;9.092;2024-01-27T07:43:57;101106.97;;;5.22;65.65
15604;BME280;7902;49.042;9.092;2024-01-27T07:46:23;101107.84;;;5.21;65.88
15604;BME280;7902;49.042;9.092;2024-01-27T07:48:49;101106.03;;;5.24;66.10
15604;BME280;7902;49.042;9.092;2024-01-27T07:51:18;101107.81;;;5.22;65.79
15604;BME280;7902;49.042;9.092;2024-01-27T07:53:43;101110.34;;;5.25;66.33
15604;BME280;7902;49.042;9.092;2024-01-27T07:56:09;101111.84;;;5.39;65.87
15604;BME280;7902;49.042;9.092;2024-01-27T07:58:35;101101.44;;;5.37;65.77
15604;BME280;7902;49.042;9.092;2024-01-27T08:01:01;101098.13;;;5.27;65.92
15604;BME280;7902;49.042;9.092;2024-01-27T08:03:27;101095.44;;;5.34;65.93
15604;BME280;7902;49.042;9.092;2024-01-27T08:05:53;101091.97;;;5.33;65.89
15604;BME280;7902;49.042;9.092;2024-01-27T08:08:21;101100.75;;;5.27;66.58
15604;BME280;7902;49.042;9.092;2024-01-27T08:10:47;101099.78;;;5.33;65.60
15604;BME280;7902;49.042;9.092;2024-01-27T08:13:13;101091.97;;;5.33;66.45
15604;BME280;7902;49.042;9.092;2024-01-27T08:15:39;101085.88;;;5.32;66.51
15604;BME280;7902;49.042;9.092;2024-01-27T08:18:05;101084.03;;;5.39;65.81
15604;BME280;7902;49.042;9.092;2024-01-27T08:20:30;101086.44;;;5.50;65.99
15604;BME280;7902;49.042;9.092;2024-01-27T08:22:56;101085.63;;;5.46;65.90
15604;BME280;7902;49.042;9.092;2024-01-27T08:25:22;101085.63;;;5.46;65.92
15604;BME280;7902;49.042;9.092;2024-01-27T08:27:48;101093.38;;;5.51;65.47
15604;BME280;7902;49.042;9.092;2024-01-27T08:30:14;101083.66;;;5.57;65.46
15604;BME280;7902;49.042;9.092;2024-01-27T08:32:40;101087.00;;;5.64;65.14
15604;BME280;7902;49.042;9.092;2024-01-27T08:35:06;101087.78;;;5.69;65.74
15604;BME280;7902;49.042;9.092;2024-01-27T08:37:32;101088.56;;;5.72;65.59
15604;BME280;7902;49.042;9.092;2024-01-27T08:40:05;101096.97;;;5.87;65.83
15604;BME280;7902;49.042;9.092;2024-01-27T08:42:31;101098.78;;;5.82;65.64
15604;BME280;7902;49.042;9.092;2024-01-27T08:44:57;101101.13;;;5.95;64.87
15604;BME280;7902;49.042;9.092;2024-01-27T08:47:23;101103.72;;;5.97;65.35
15604;BME280;7902;49.042;9.092;2024-01-27T08:49:49;101102.78;;;5.99;65.22
15604;BME280;7902;49.042;9.092;2024-01-27T08:52:15;101098.44;;;6.00;64.99
15604;BME280;7902;49.042;9.092;2024-01-27T08:54:41;101100.28;;;5.95;65.26
15604;BME280;7902;49.042;9.092;2024-01-27T08:57:07;101095.06;;;5.95;64.76
15604;BME280;7902;49.042;9.092;2024-01-27T08:59:33;101095.06;;;5.95;65.22
15604;BME280;7902;49.042;9.092;2024-01-27T09:01:59;101092.19;;;6.07;64.60
15604;BME280;7902;49.042;9.092;2024-01-27T09:04:24;101086.00;;;6.11;65.60
15604;BME280;7902;49.042;9.092;2024-01-27T09:06:50;101096.56;;;6.05;65.68
15604;BME280;7902;49.042;9.092;2024-01-27T09:09:16;101096.16;;;6.23;64.89
15604;BME280;7902;49.042;9.092;2024-01-27T09:11:42;101099.59;;;6.25;64.68
15604;BME280;7902;49.042;9.092;2024-01-27T09:14:08;101100.56;;;6.21;65.51
15604;BME280;7902;49.042;9.092;2024-01-27T09:16:34;101102.81;;;6.36;65.06
15604;BME280;7902;49.042;9.092;2024-01-27T09:19:00;101110.31;;;6.50;64.78
15604;BME280;7902;49.042;9.092;2024-01-27T09:21:26;101105.88;;;6.53;63.98
15604;BME280;7902;49.042;9.092;2024-01-27T09:23:54;101104.09;;;6.55;64.01
15604;BME280;7902;49.042;9.092;2024-01-27T09:26:20;101107.63;;;6.53;64.83
15604;BME280;7902;49.042;9.092;2024-01-27T09:28:48;101111.34;;;6.44;64.54
15604;BME280;7902;49.042;9.092;2024-01-27T09:31:24;101106.56;;;6.61;64.14
15604;BME280;7902;49.042;9.092;2024-01-27T09:33:54;101098.84;;;6.55;64.61
15604;BME280;7902;49.042;9.092;2024-01-27T09:36:20;101110.91;;;6.61;64.55
15604;BME280;7902;49.042;9.092;2024-01-27T09:38:46;101115.88;;;6.72;64.27
15604;BME280;7902;49.042;9.092;2024-01-27T09:41:13;101120.31;;;6.68;64.08
15604;BME280;7902;49.042;9.092;2024-01-27T09:43:44;101126.59;;;6.59;64.84
15604;BME280;7902;49.042;9.092;2024-01-27T09:46:15;101123.81;;;6.67;64.80
15604;BME280;7902;49.042;9.092;2024-01-27T09:48:41;101115.22;;;6.64;65.00
15604;BME280;7902;49.042;9.092;2024-01-27T09:51:08;101111.66;;;6.66;65.05
15604;BME280;7902;49.042;9.092;2024-01-27T09:53:35;101115.78;;;6.75;64.54
15604;BME280;7902;49.042;9.092;2024-01-27T09:56:02;101111.97;;;6.88;64.37
15604;BME280;7902;49.042;9.092;2024-01-27T09:58:29;101123.38;;;6.85;64.95
15604;BME280;7902;49.042;9.092;2024-01-27T10:00:57;101122.19;;;6.97;64.71
15604;BME280;7902;49.042;9.092;2024-01-27T10:03:25;101119.28;;;7.09;63.98
15604;BME280;7902;49.042;9.092;2024-01-27T10:05:52;101126.78;;;7.21;63.55
15604;BME280;7902;49.042;9.092;2024-01-27T10:08:22;101131.72;;;7.32;63.29
15604;BME280;7902;49.042;9.092;2024-01-27T10:10:55;101136.38;;;7.21;63.95
15604;BME280;7902;49.042;9.092;2024-01-27T10:13:22;101136.03;;;7.34;63.64
15604;BME280;7902;49.042;9.092;2024-01-27T10:16:05;101142.31;;;7.27;63.42
15604;BME280;7902;49.042;9.092;2024-01-27T10:18:32;101136.56;;;7.45;63.00
15604;BME280;7902;49.042;9.092;2024-01-27T10:20:59;101137.09;;;7.58;62.99
15604;BME280;7902;49.042;9.092;2024-01-27T10:23:25;101128.47;;;7.55;63.20
15604;BME280;7902;49.042;9.092;2024-01-27T10:25:51;101122.25;;;7.59;63.13
15604;BME280;7902;49.042;9.092;2024-01-27T10:28:18;101123.09;;;7.61;63.07
15604;BME280;7902;49.042;9.092;2024-01-27T10:30:45;101129.16;;;7.63;62.99
15604;BME280;7902;49.042;9.092;2024-01-27T10:33:11;101117.03;;;7.59;63.36
15604;BME280;7902;49.042;9.092;2024-01-27T10:35:41;101126.16;;;7.75;62.77
15604;BME280;7902;49.042;9.092;2024-01-27T10:38:08;101120.38;;;7.64;62.95
15604;BME280;7902;49.042;9.092;2024-01-27T10:40:35;101115.34;;;7.87;62.54
15604;BME280;7902;49.042;9.092;2024-01-27T10:43:06;101113.31;;;7.67;63.40
15604;BME280;7902;49.042;9.092;2024-01-27T10:45:37;101111.78;;;7.89;62.96
15604;BME280;7902;49.042;9.092;2024-01-27T10:48:04;101107.16;;;7.99;62.31
15604;BME280;7902;49.042;9.092;2024-01-27T10:50:35;101095.63;;;7.77;63.06
15604;BME280;7902;49.042;9.092;2024-01-27T10:53:03;101090.28;;;7.80;62.46
15604;BME280;7902;49.042;9.092;2024-01-27T10:55:30;101084.50;;;7.98;62.74
15604;BME280;7902;49.042;9.092;2024-01-27T10:57:58;101086.28;;;7.96;62.70
15604;BME280;7902;49.042;9.092;2024-01-27T11:00:24;101077.16;;;7.81;63.15
15604;BME280;7902;49.042;9.092;2024-01-27T11:02:52;101075.00;;;7.96;62.87
15604;BME280;7902;49.042;9.092;2024-01-27T11:05:21;101076.50;;;8.03;62.87
15604;BME280;7902;49.042;9.092;2024-01-27T11:07:47;101065.91;;;8.07;62.25
15604;BME280;7902;49.042;9.092;2024-01-27T11:10:13;101064.19;;;8.06;62.43
15604;BME280;7902;49.042;9.092;2024-01-27T11:12:39;101073.56;;;8.13;62.49
15604;BME280;7902;49.042;9.092;2024-01-27T11:15:06;101070.66;;;8.22;62.54
15604;BME280;7902;49.042;9.092;2024-01-27T11:17:40;101062.38;;;8.08;62.46
15604;BME280;7902;49.042;9.092;2024-01-27T11:20:10;101061.53;;;8.08;62.97
15604;BME280;7902;49.042;9.092;2024-01-27T11:22:37;101055.13;;;8.16;62.63
15604;BME280;7902;49.042;9.092;2024-01-27T11:25:08;101046.88;;;8.02;63.42
15604;BME280;7902;49.042;9.092;2024-01-27T11:27:34;101050.81;;;8.15;62.88
15604;BME280;7902;49.042;9.092;2024-01-27T11:30:01;101053.28;;;8.20;62.89
15604;BME280;7902;49.042;9.092;2024-01-27T11:32:27;101057.19;;;8.34;62.65
15604;BME280;7902;49.042;9.092;2024-01-27T11:34:53;101066.22;;;8.24;62.65
15604;BME280;7902;49.042;9.092;2024-01-27T11:37:19;101060.03;;;8.27;62.83
15604;BME280;7902;49.042;9.092;2024-01-27T11:39:51;101065.69;;;8.43;62.59
15604;BME280;7902;49.042;9.092;2024-01-27T11:42:20;101058.16;;;8.32;62.57
15604;BME280;7902;49.042;9.092;2024-01-27T11:44:46;101047.91;;;8.24;63.23
15604;BME280;7902;49.042;9.092;2024-01-27T11:47:18;101042.28;;;8.38;62.73
15604;BME280;7902;49.042;9.092;2024-01-27T11:49:54;101038.22;;;8.28;62.59
15604;BME280;7902;49.042;9.092;2024-01-27T11:52:25;101033.31;;;8.45;62.29
15604;BME280;7902;49.042;9.092;2024-01-27T11:54:55;101033.84;;;8.55;61.73
15604;BME280;7902;49.042;9.092;2024-01-27T11:57:21;101029.78;;;8.46;62.13
15604;BME280;7902;49.042;9.092;2024-01-27T11:59:47;101015.56;;;8.53;61.89
15604;BME280;7902;49.042;9.092;2024-01-27T12:02:17;101032.06;;;8.57;62.23
15604;BME280;7902;49.042;9.092;2024-01-27T12:05:10;101030.03;;;8.65;61.96
15604;BME280;7902;49.042;9.092;2024-01-27T12:07:50;101030.25;;;8.57;61.83
15604;BME280;7902;49.042;9.092;2024-01-27T12:10:31;101023.78;;;8.69;62.04
15604;BME280;7902;49.042;9.092;2024-01-27T12:13:02;101022.25;;;8.62;61.58
15604;BME280;7902;49.042;9.092;2024-01-27T12:15:42;101012.63;;;8.62;62.13
15604;BME280;7902;49.042;9.092;2024-01-27T12:18:11;101017.63;;;8.70;61.53
15604;BME280;7902;49.042;9.092;2024-01-27T12:20:38;101011.63;;;8.66;61.76
15604;BME280;7902;49.042;9.092;2024-01-27T12:23:19;101005.31;;;8.72;62.15
15604;BME280;7902;49.042;9.092;2024-01-27T12:26:00;101002.97;;;8.64;62.11
15604;BME280;7902;49.042;9.092;2024-01-27T12:28:41;100998.47;;;8.68;61.97
15604;BME280;7902;49.042;9.092;2024-01-27T12:31:12;100998.69;;;8.62;62.11
15604;BME280;7902;49.042;9.092;2024-01-27T12:33:51;100998.28;;;8.74;61.75
15604;BME280;7902;49.042;9.092;2024-01-27T12:36:29;100987.59;;;8.80;61.42
15604;BME280;7902;49.042;9.092;2024-01-27T12:39:06;100986.81;;;8.76;61.58
15604;BME280;7902;49.042;9.092;2024-01-27T12:41:38;100991.66;;;8.89;61.67
15604;BME280;7902;49.042;9.092;2024-01-27T12:44:07;100988.22;;;8.87;61.29
15604;BME280;7902;49.042;9.092;2024-01-27T12:46:36;101000.97;;;8.96;61.86
15604;BME280;7902;49.042;9.092;2024-01-27T12:52:02;100996.56;;;8.98;61.53
15604;BME280;7902;49.042;9.092;2024-01-27T12:54:37;101001.97;;;8.93;61.23
15604;BME280;7902;49.042;9.092;2024-01-27T13:00:09;101002.75;;;8.95;61.77
15604;BME280;7902;49.042;9.092;2024-01-27T13:02:52;101008.84;;;8.96;61.74
15604;BME280;7902;49.042;9.092;2024-01-27T13:05:58;101007.25;;;8.92;62.15
15604;BME280;7902;49.042;9.092;2024-01-27T13:08:24;101007.97;;;8.95;61.77
15604;BME280;7902;49.042;9.092;2024-01-27T13:10:51;101008.75;;;8.99;61.93
15604;BME280;7902;49.042;9.092;2024-01-27T13:13:17;101006.63;;;8.85;62.33
15604;BME280;7902;49.042;9.092;2024-01-27T13:15:43;100992.91;;;9.02;61.94